Time;durP1;ratioP1;P1;durP2;ratioP2;P2;SDS_P1;SDS_P2;PMS_P1;PMS_P2;Temp;Humidity;BMP_temperature;BMP_pressure;BME280_temperature;BME280_humidity;BME280_pressure;Samples;Min_cycle;Max_cycle;Signal;HPM_P1;HPM_P2
2021/03/31 00:00:41;;;;;;;15.53;8.53;;;13.00;99.90;;;;;;5071429;28;20195;-76
2021/03/31 00:03:14;;;;;;;18.03;9.73;;;13.00;99.90;;;;;;5072100;28;20210;-76
2021/03/31 00:05:40;;;;;;;16.70;9.03;;;13.00;99.90;;;;;;5069246;28;20265;-76
2021/03/31 00:08:07;;;;;;;18.90;9.50;;;12.90;99.90;;;;;;5073418;28;20194;-77
2021/03/31 00:10:36;;;;;;;20.53;9.27;;;12.70;99.90;;;;;;5071359;28;20198;-78
2021/03/31 00:13:03;;;;;;;17.20;9.70;;;12.60;99.90;;;;;;5071606;28;20198;-77
2021/03/31 00:15:29;;;;;;;18.17;9.97;;;12.50;99.90;;;;;;5070944;28;20222;-76
2021/03/31 00:17:55;;;;;;;17.97;9.77;;;12.50;99.90;;;;;;5067287;28;20194;-77
2021/03/31 00:20:21;;;;;;;22.57;10.80;;;12.50;99.90;;;;;;5072470;28;20186;-76
2021/03/31 00:22:47;;;;;;;21.80;11.00;;;12.50;99.90;;;;;;5067138;28;20232;-77
2021/03/31 00:25:13;;;;;;;21.73;10.37;;;12.60;99.90;;;;;;5070219;28;20620;-78
2021/03/31 00:27:41;;;;;;;18.03;10.23;;;12.50;99.90;;;;;;5071858;28;20188;-76
2021/03/31 00:30:09;;;;;;;19.57;10.43;;;12.50;99.90;;;;;;5068402;28;20203;-76
2021/03/31 00:32:35;;;;;;;20.23;11.33;;;12.50;99.90;;;;;;5071330;28;20204;-77
2021/03/31 00:35:01;;;;;;;21.67;11.43;;;12.40;99.90;;;;;;5068119;28;20206;-76
2021/03/31 00:37:27;;;;;;;24.13;12.17;;;12.40;99.90;;;;;;5071798;28;20186;-78
2021/03/31 00:39:52;;;;;;;22.07;11.87;;;12.40;99.90;;;;;;5072484;28;20301;-78
2021/03/31 00:42:18;;;;;;;26.33;12.63;;;12.50;99.90;;;;;;5068043;28;20186;-76
2021/03/31 00:44:44;;;;;;;21.20;11.87;;;12.60;99.90;;;;;;5068282;28;20549;-77
2021/03/31 00:47:09;;;;;;;20.13;11.53;;;12.60;99.90;;;;;;5068446;28;20206;-77
2021/03/31 00:49:35;;;;;;;21.57;12.13;;;12.50;99.90;;;;;;5069658;28;20661;-77
2021/03/31 00:52:03;;;;;;;20.40;11.57;;;12.50;99.90;;;;;;5075434;28;20616;-77
2021/03/31 00:54:28;;;;;;;22.40;11.83;;;12.50;99.90;;;;;;5082677;28;20215;-78
2021/03/31 00:56:54;;;;;;;20.73;11.20;;;12.50;99.90;;;;;;5073601;28;20663;-75
2021/03/31 00:59:20;;;;;;;21.30;11.53;;;12.50;99.90;;;;;;5069433;28;20194;-75
2021/03/31 01:01:46;;;;;;;24.90;11.70;;;12.40;99.90;;;;;;5070824;28;20182;-75
2021/03/31 01:04:11;;;;;;;20.27;10.87;;;12.30;99.90;;;;;;5066686;28;20665;-76
2021/03/31 01:06:37;;;;;;;19.03;11.30;;;12.20;99.90;;;;;;5071124;28;20193;-75
2021/03/31 01:09:04;;;;;;;22.23;11.03;;;12.00;99.90;;;;;;5070452;28;20584;-77
2021/03/31 01:11:52;;;;;;;22.20;10.77;;;11.90;99.90;;;;;;5067946;28;20190;-76
2021/03/31 01:14:55;;;;;;;18.10;10.70;;;11.80;99.90;;;;;;5069295;28;20636;-76
2021/03/31 01:17:42;;;;;;;20.40;11.27;;;11.80;99.90;;;;;;5066446;28;20195;-76
2021/03/31 01:20:27;;;;;;;23.13;11.00;;;11.80;99.90;;;;;;5105188;27;20181;-76
2021/03/31 01:23:09;;;;;;;20.90;11.10;;;11.70;99.90;;;;;;5063122;28;20227;-76
2021/03/31 01:25:46;;;;;;;22.67;11.47;;;11.70;99.90;;;;;;5070874;28;20242;-76
2021/03/31 01:28:42;;;;;;;23.67;11.80;;;11.70;99.90;;;;;;5066244;28;20193;-76
2021/03/31 01:31:35;;;;;;;23.20;11.87;;;11.70;99.90;;;;;;5085861;28;20192;-76
2021/03/31 01:34:29;;;;;;;19.93;11.27;;;11.70;99.90;;;;;;5066286;28;20205;-75
2021/03/31 01:36:56;;;;;;;22.97;13.00;;;11.60;99.90;;;;;;5069174;28;20271;-76
2021/03/31 01:39:23;;;;;;;23.47;13.40;;;11.60;99.90;;;;;;5064805;28;20554;-76
2021/03/31 01:41:50;;;;;;;25.93;12.50;;;11.60;99.90;;;;;;5069013;28;20284;-75
2021/03/31 01:44:18;;;;;;;20.70;11.97;;;11.70;99.90;;;;;;5070842;28;20214;-76
2021/03/31 01:46:50;;;;;;;22.43;12.13;;;11.70;99.90;;;;;;5066813;28;20207;-76
2021/03/31 01:49:17;;;;;;;21.60;11.70;;;11.70;99.90;;;;;;5084721;28;20179;-76
2021/03/31 01:51:43;;;;;;;19.43;12.13;;;11.70;99.90;;;;;;5067673;28;20309;-76
2021/03/31 01:54:09;;;;;;;27.07;13.57;;;11.70;99.90;;;;;;5070620;28;20222;-76
2021/03/31 01:56:36;;;;;;;25.50;14.10;;;11.60;99.90;;;;;;5071095;28;20553;-76
2021/03/31 01:59:02;;;;;;;22.63;13.50;;;11.60;99.90;;;;;;5066130;28;20232;-75
2021/03/31 02:01:28;;;;;;;21.63;12.40;;;11.60;99.90;;;;;;5064278;28;20189;-75
2021/03/31 02:03:57;;;;;;;21.93;13.03;;;11.60;99.90;;;;;;5067395;28;20190;-75
2021/03/31 02:06:26;;;;;;;21.53;12.37;;;11.70;99.90;;;;;;5067846;28;20195;-76
2021/03/31 02:08:52;;;;;;;21.80;12.43;;;11.60;99.90;;;;;;5069432;28;20205;-76
2021/03/31 02:11:18;;;;;;;20.93;12.93;;;11.60;99.90;;;;;;5069709;28;20274;-75
2021/03/31 02:13:47;;;;;;;22.17;12.43;;;11.60;99.90;;;;;;5065310;28;20295;-75
2021/03/31 02:16:13;;;;;;;20.67;12.60;;;11.50;99.90;;;;;;5068472;28;20194;-76
2021/03/31 02:18:40;;;;;;;27.87;13.13;;;11.50;99.90;;;;;;5071396;28;20518;-76
2021/03/31 02:21:06;;;;;;;22.43;13.70;;;11.40;99.90;;;;;;5066493;28;20181;-76
2021/03/31 02:23:34;;;;;;;22.67;12.57;;;11.50;99.90;;;;;;5069767;28;20276;-75
2021/03/31 02:26:00;;;;;;;19.93;11.73;;;11.50;99.90;;;;;;5067555;28;20218;-76
2021/03/31 02:28:26;;;;;;;20.10;11.70;;;11.40;99.90;;;;;;5069372;28;20229;-76
2021/03/31 02:30:52;;;;;;;21.80;11.37;;;11.40;99.90;;;;;;5066426;28;20267;-76
2021/03/31 02:33:18;;;;;;;17.93;11.67;;;11.30;99.90;;;;;;5067614;28;20236;-77
2021/03/31 02:35:44;;;;;;;20.97;11.93;;;11.20;99.90;;;;;;5070063;28;20213;-76
2021/03/31 02:38:17;;;;;;;21.17;11.40;;;11.10;99.90;;;;;;5066617;28;20251;-77
2021/03/31 02:40:48;;;;;;;20.70;11.87;;;11.10;99.90;;;;;;5071779;28;20208;-76
2021/03/31 02:43:16;;;;;;;21.87;12.50;;;11.00;99.90;;;;;;5073863;28;20213;-77
2021/03/31 02:45:45;;;;;;;20.20;11.83;;;10.90;99.90;;;;;;5100636;28;20188;-76
2021/03/31 02:48:14;;;;;;;22.90;12.23;;;10.90;99.90;;;;;;5072506;28;20181;-77
2021/03/31 02:50:40;;;;;;;22.23;12.43;;;10.90;99.90;;;;;;5069412;28;20183;-76
2021/03/31 02:53:06;;;;;;;22.43;12.10;;;10.80;99.90;;;;;;5071618;28;20528;-76
2021/03/31 02:55:32;;;;;;;21.77;12.27;;;10.60;99.90;;;;;;5073714;28;20221;-76
2021/03/31 02:58:01;;;;;;;24.33;12.33;;;10.60;99.90;;;;;;5071286;28;20186;-76
2021/03/31 03:00:27;;;;;;;22.60;11.80;;;10.60;99.90;;;;;;5076374;28;20276;-76
2021/03/31 03:02:53;;;;;;;19.70;12.13;;;10.60;99.90;;;;;;5056408;28;20235;-76
2021/03/31 03:05:20;;;;;;;23.83;13.03;;;10.70;99.90;;;;;;5073729;28;20244;-76
2021/03/31 03:07:47;;;;;;;25.07;13.00;;;10.70;99.90;;;;;;5072016;28;20187;-76
2021/03/31 03:10:13;;;;;;;22.23;13.07;;;10.70;99.90;;;;;;5073123;28;20192;-77
2021/03/31 03:12:54;;;;;;;21.80;11.83;;;10.80;99.90;;;;;;5074455;28;20180;-77
2021/03/31 03:15:25;;;;;;;21.63;11.60;;;10.60;99.90;;;;;;5068193;28;20207;-76
2021/03/31 03:17:51;;;;;;;24.33;11.70;;;10.50;99.90;;;;;;5072501;28;20648;-77
2021/03/31 03:20:18;;;;;;;22.93;12.30;;;10.50;99.90;;;;;;5071459;28;20193;-77
2021/03/31 03:22:47;;;;;;;22.20;12.83;;;10.50;99.90;;;;;;5072054;28;21279;-76
2021/03/31 03:25:14;;;;;;;23.97;12.77;;;10.50;99.90;;;;;;5073220;28;20249;-77
2021/03/31 03:27:44;;;;;;;21.10;12.33;;;10.50;99.90;;;;;;5071633;28;20212;-77
2021/03/31 03:30:17;;;;;;;25.50;12.60;;;10.50;99.90;;;;;;5077731;28;20243;-76
2021/03/31 03:32:46;;;;;;;21.30;12.80;;;10.50;99.90;;;;;;5071436;28;20192;-76
2021/03/31 03:35:14;;;;;;;20.13;12.13;;;10.50;99.90;;;;;;5072750;28;20270;-76
2021/03/31 03:37:42;;;;;;;23.30;12.50;;;10.50;99.90;;;;;;5070803;28;20195;-77
2021/03/31 03:40:08;;;;;;;20.53;12.00;;;10.50;99.90;;;;;;5071054;28;20185;-76
2021/03/31 03:42:36;;;;;;;20.57;12.07;;;10.50;99.90;;;;;;5073320;28;20182;-77
2021/03/31 03:45:02;;;;;;;23.93;12.07;;;10.40;99.90;;;;;;5070039;28;20196;-76
2021/03/31 03:47:29;;;;;;;21.37;11.93;;;10.30;99.90;;;;;;5071502;28;20199;-77
2021/03/31 03:49:55;;;;;;;21.67;12.57;;;10.30;99.90;;;;;;5070747;28;20280;-76
2021/03/31 03:52:22;;;;;;;22.97;12.07;;;10.20;99.90;;;;;;5071961;28;20264;-76
2021/03/31 03:54:55;;;;;;;26.13;13.30;;;10.20;99.90;;;;;;5072630;28;20200;-76
2021/03/31 03:57:28;;;;;;;22.47;12.03;;;10.20;99.90;;;;;;5068721;28;20201;-76
2021/03/31 03:59:57;;;;;;;19.27;12.00;;;10.30;99.90;;;;;;5073217;28;20184;-76
2021/03/31 04:02:23;;;;;;;24.67;12.60;;;10.30;99.90;;;;;;5064700;28;20189;-77
2021/03/31 04:04:50;;;;;;;24.93;12.20;;;10.30;99.90;;;;;;5072693;28;20188;-76
2021/03/31 04:07:15;;;;;;;21.83;12.07;;;10.20;99.90;;;;;;5073895;28;20185;-76
2021/03/31 04:09:46;;;;;;;24.73;12.40;;;10.20;99.90;;;;;;5068902;28;20186;-76
2021/03/31 04:12:13;;;;;;;21.87;11.63;;;10.20;99.90;;;;;;5073764;28;20188;-76
2021/03/31 04:14:40;;;;;;;21.73;12.50;;;10.20;99.90;;;;;;5068588;28;20237;-76
2021/03/31 04:17:10;;;;;;;22.43;12.93;;;10.20;99.90;;;;;;5073747;28;20181;-77
2021/03/31 04:19:38;;;;;;;22.13;13.23;;;10.20;99.90;;;;;;5072564;28;20609;-76
2021/03/31 04:22:09;;;;;;;23.40;12.37;;;10.20;99.90;;;;;;5067304;28;21104;-76
2021/03/31 04:24:35;;;;;;;23.77;12.43;;;10.30;99.90;;;;;;5069889;28;20205;-76
2021/03/31 04:27:03;;;;;;;21.03;12.07;;;10.30;99.90;;;;;;5071296;28;20198;-77
2021/03/31 04:29:30;;;;;;;22.07;11.70;;;10.20;99.90;;;;;;5071543;28;20199;-76
2021/03/31 04:31:55;;;;;;;21.77;12.33;;;10.20;99.90;;;;;;5070047;28;20196;-76
2021/03/31 04:34:22;;;;;;;25.33;12.83;;;10.10;99.90;;;;;;5068163;28;20205;-76
2021/03/31 04:36:47;;;;;;;20.90;11.87;;;10.10;99.90;;;;;;5060950;28;20205;-77
2021/03/31 04:39:15;;;;;;;26.73;13.17;;;10.10;99.90;;;;;;5069249;28;20573;-77
2021/03/31 04:41:40;;;;;;;22.30;11.83;;;10.10;99.90;;;;;;5070204;28;20189;-76
2021/03/31 04:44:06;;;;;;;24.50;11.50;;;10.20;99.90;;;;;;5067737;28;20199;-76
2021/03/31 04:46:32;;;;;;;22.13;11.60;;;10.10;99.90;;;;;;5071201;28;20645;-76
2021/03/31 04:48:58;;;;;;;26.20;12.27;;;10.10;99.90;;;;;;5072806;28;20222;-77
2021/03/31 04:51:24;;;;;;;26.47;12.27;;;10.00;99.90;;;;;;5068998;28;20286;-76
2021/03/31 04:53:50;;;;;;;24.00;12.40;;;10.10;99.90;;;;;;5073612;28;20290;-76
2021/03/31 04:56:15;;;;;;;22.53;11.53;;;10.10;99.90;;;;;;5066367;28;20623;-76
2021/03/31 04:58:41;;;;;;;24.10;12.17;;;10.20;99.90;;;;;;5069083;28;20208;-76
2021/03/31 05:01:07;;;;;;;24.67;12.10;;;10.20;99.90;;;;;;5070968;28;20180;-76
2021/03/31 05:03:32;;;;;;;29.07;12.33;;;10.20;99.90;;;;;;5069191;28;20190;-76
2021/03/31 05:05:58;;;;;;;29.50;12.03;;;10.20;99.90;;;;;;5066888;28;20180;-77
2021/03/31 05:08:23;;;;;;;26.10;11.93;;;10.20;99.90;;;;;;5069462;28;20654;-77
2021/03/31 05:10:49;;;;;;;24.63;11.87;;;10.20;99.90;;;;;;5071563;28;20735;-77
2021/03/31 05:13:15;;;;;;;23.67;11.77;;;10.20;99.90;;;;;;5066624;28;20702;-77
2021/03/31 05:15:42;;;;;;;25.07;11.17;;;10.20;99.90;;;;;;5067992;28;20207;-76
2021/03/31 05:18:07;;;;;;;25.90;12.30;;;10.20;99.90;;;;;;5102431;27;20184;-77
2021/03/31 05:20:34;;;;;;;26.90;12.10;;;10.10;99.90;;;;;;5069852;28;20199;-77
2021/03/31 05:23:00;;;;;;;22.40;11.73;;;10.10;99.90;;;;;;5070935;28;20250;-77
2021/03/31 05:25:26;;;;;;;25.60;11.60;;;10.10;99.90;;;;;;5065323;28;20238;-77
2021/03/31 05:27:53;;;;;;;21.40;10.90;;;10.00;99.90;;;;;;5069137;28;20199;-77
2021/03/31 05:30:19;;;;;;;19.77;10.90;;;10.00;99.90;;;;;;5073458;28;20175;-77
2021/03/31 05:32:45;;;;;;;25.47;11.20;;;10.00;99.90;;;;;;5067285;28;20294;-77
2021/03/31 05:35:11;;;;;;;25.07;12.23;;;10.10;99.90;;;;;;5073131;28;20350;-76
2021/03/31 05:37:37;;;;;;;27.23;11.53;;;10.10;99.90;;;;;;5068558;28;20173;-77
2021/03/31 05:40:05;;;;;;;27.30;12.47;;;10.20;99.90;;;;;;5067293;28;20186;-75
2021/03/31 05:42:32;;;;;;;24.20;11.40;;;10.30;99.90;;;;;;5069432;28;20179;-75
2021/03/31 05:45:00;;;;;;;28.33;11.77;;;10.30;99.90;;;;;;5067097;28;20205;-75
2021/03/31 05:47:35;;;;;;;28.30;11.57;;;10.40;99.90;;;;;;5068354;28;20184;-75
2021/03/31 05:50:06;;;;;;;22.83;10.63;;;10.50;99.90;;;;;;5064007;28;20188;-75
2021/03/31 05:52:33;;;;;;;22.57;10.93;;;10.80;99.90;;;;;;5069916;28;20195;-76
2021/03/31 05:55:01;;;;;;;31.57;11.17;;;11.40;99.90;;;;;;5072022;28;20206;-76
2021/03/31 05:57:32;;;;;;;28.90;10.70;;;11.90;99.90;;;;;;5067149;28;20205;-77
2021/03/31 05:59:58;;;;;;;19.77;9.60;;;12.50;99.90;;;;;;5070066;28;21390;-76
2021/03/31 06:02:24;;;;;;;23.53;10.10;;;13.00;99.90;;;;;;5065413;28;20197;-76
2021/03/31 06:04:52;;;;;;;22.13;9.97;;;13.40;99.90;;;;;;5068664;28;20277;-74
2021/03/31 06:07:18;;;;;;;30.97;9.87;;;13.80;99.90;;;;;;5071651;28;20190;-74
2021/03/31 06:10:19;;;;;;;22.13;10.10;;;14.20;99.90;;;;;;5068401;28;20334;-76
2021/03/31 06:12:51;;;;;;;24.87;10.33;;;14.50;99.90;;;;;;5053204;28;20242;-76
2021/03/31 06:15:39;;;;;;;25.27;10.03;;;14.50;99.90;;;;;;5064155;28;20630;-75
2021/03/31 06:18:08;;;;;;;21.23;10.07;;;14.40;99.90;;;;;;5082271;28;20174;-75
2021/03/31 06:20:43;;;;;;;24.00;10.20;;;14.20;99.90;;;;;;5060692;28;20517;-75
2021/03/31 06:26:15;;;;;;;20.90;10.33;;;13.90;99.90;;;;;;5074040;28;20250;-75
2021/03/31 06:28:41;;;;;;;26.67;10.70;;;13.80;99.90;;;;;;5072040;28;20180;-75
2021/03/31 06:31:11;;;;;;;21.23;9.90;;;13.70;99.90;;;;;;5074068;28;20175;-75
2021/03/31 06:33:39;;;;;;;24.70;11.07;;;13.60;99.90;;;;;;5070642;28;20193;-75
2021/03/31 06:36:06;;;;;;;27.13;10.33;;;13.40;99.90;;;;;;5076797;28;20275;-75
2021/03/31 06:38:33;;;;;;;25.10;11.70;;;13.20;99.90;;;;;;5064881;28;20195;-75
2021/03/31 06:41:36;;;;;;;27.53;10.77;;;13.20;99.90;;;;;;5073011;28;20653;-75
2021/03/31 06:44:14;;;;;;;31.70;11.27;;;13.30;99.90;;;;;;5070545;28;20241;-75
2021/03/31 06:49:08;;;;;;;23.00;11.13;;;14.00;99.90;;;;;;5073814;28;20184;-75
2021/03/31 06:51:34;;;;;;;21.57;10.13;;;16.00;99.90;;;;;;5068222;28;20194;-75
2021/03/31 06:54:17;;;;;;;25.10;10.83;;;18.20;99.90;;;;;;5074433;28;20233;-75
2021/03/31 06:56:54;;;;;;;21.53;10.23;;;20.00;99.90;;;;;;5067963;28;20271;-76
2021/03/31 06:59:32;;;;;;;21.73;9.90;;;21.00;99.90;;;;;;5071743;28;20656;-76
2021/03/31 07:01:59;;;;;;;22.40;9.53;;;21.90;97.20;;;;;;5070626;28;20189;-76
2021/03/31 07:04:30;;;;;;;25.03;10.07;;;23.30;94.00;;;;;;5074601;28;20191;-76
2021/03/31 07:07:10;;;;;;;24.07;9.80;;;24.70;86.80;;;;;;5071212;28;20176;-76
2021/03/31 07:09:40;;;;;;;22.60;10.68;;;25.50;79.50;;;;;;5070952;28;20191;-76
2021/03/31 07:12:22;;;;;;;19.92;10.50;;;26.50;73.50;;;;;;5073273;28;20263;-75
2021/03/31 07:14:50;;;;;;;19.13;10.13;;;27.30;68.60;;;;;;5069056;28;20211;-76
2021/03/31 07:17:25;;;;;;;21.25;10.75;;;28.30;64.70;;;;;;5073638;28;20226;-76
2021/03/31 07:19:51;;;;;;;23.13;10.57;;;29.00;62.20;;;;;;5069903;28;20201;-76
2021/03/31 07:22:17;;;;;;;19.35;10.30;;;29.70;59.40;;;;;;5073535;28;20184;-76
2021/03/31 07:24:43;;;;;;;28.63;10.68;;;30.30;57.20;;;;;;5070591;28;20702;-76
2021/03/31 07:27:11;;;;;;;22.50;10.90;;;30.90;55.70;;;;;;5066127;28;20268;-76
2021/03/31 07:30:05;;;;;;;22.73;12.43;;;31.70;53.60;;;;;;5071534;28;20183;-76
2021/03/31 07:33:01;;;;;;;25.25;12.93;;;32.10;51.40;;;;;;5068333;28;20203;-76
2021/03/31 07:35:29;;;;;;;28.10;13.55;;;32.60;50.00;;;;;;5044559;28;20700;-77
2021/03/31 07:37:59;;;;;;;24.55;12.52;;;33.10;48.60;;;;;;5064176;28;20190;-76
2021/03/31 07:40:25;;;;;;;24.38;11.20;;;33.50;47.10;;;;;;5070590;28;20230;-76
2021/03/31 07:43:07;;;;;;;22.50;11.50;;;33.70;46.80;;;;;;5072355;28;20179;-77
2021/03/31 07:45:38;;;;;;;23.35;11.45;;;34.20;45.60;;;;;;5086711;28;20564;-77
2021/03/31 07:48:05;;;;;;;25.48;10.73;;;34.80;44.40;;;;;;5071262;28;20183;-77
2021/03/31 07:50:32;;;;;;;22.77;11.18;;;34.70;43.50;;;;;;5070516;28;20190;-76
2021/03/31 07:53:03;;;;;;;26.85;11.90;;;34.60;43.50;;;;;;5068513;28;20173;-76
2021/03/31 07:55:45;;;;;;;23.65;10.98;;;35.00;43.80;;;;;;5068359;28;20238;-76
2021/03/31 07:58:16;;;;;;;23.42;11.30;;;35.20;42.70;;;;;;5104824;27;20609;-76
2021/03/31 08:00:56;;;;;;;22.60;11.32;;;35.50;42.00;;;;;;5071825;28;20184;-76
2021/03/31 08:03:24;;;;;;;25.38;11.07;;;35.20;42.30;;;;;;5072170;28;20182;-76
2021/03/31 08:06:32;;;;;;;21.80;11.07;;;35.90;41.90;;;;;;5070928;28;20188;-77
2021/03/31 08:09:02;;;;;;;20.98;9.98;;;36.70;41.20;;;;;;5006748;28;20581;-77
2021/03/31 08:11:36;;;;;;;20.35;11.23;;;37.20;40.40;;;;;;5010038;28;20193;-77
2021/03/31 08:14:04;;;;;;;26.52;11.82;;;37.20;39.40;;;;;;5041327;28;20219;-76
2021/03/31 08:16:35;;;;;;;20.38;11.20;;;37.30;40.00;;;;;;5069010;28;20191;-76
2021/03/31 08:19:06;;;;;;;21.88;11.27;;;37.50;39.60;;;;;;5068177;28;20191;-77
2021/03/31 08:21:35;;;;;;;22.27;11.43;;;37.80;39.50;;;;;;5070544;28;20183;-76
2021/03/31 08:24:03;;;;;;;20.98;11.13;;;38.10;39.20;;;;;;5067933;28;20278;-76
2021/03/31 08:26:46;;;;;;;18.38;10.02;;;38.60;38.30;;;;;;5070206;28;20192;-76
2021/03/31 08:29:32;;;;;;;23.15;12.02;;;38.90;37.90;;;;;;5073207;28;20248;-77
2021/03/31 08:32:06;;;;;;;23.48;13.73;;;39.20;36.30;;;;;;5068567;28;20668;-77
2021/03/31 08:34:33;;;;;;;24.42;17.27;;;39.20;36.00;;;;;;5069623;28;20265;-77
2021/03/31 08:37:04;;;;;;;26.90;17.92;;;39.30;34.40;;;;;;5068815;28;20184;-77
2021/03/31 08:39:30;;;;;;;25.95;18.10;;;39.50;34.70;;;;;;5071549;28;20191;-77
2021/03/31 08:41:57;;;;;;;26.98;19.85;;;39.80;34.40;;;;;;5071704;28;20182;-77
2021/03/31 08:44:29;;;;;;;35.00;22.52;;;39.90;35.20;;;;;;5085460;28;20661;-77
2021/03/31 08:47:07;;;;;;;36.25;23.77;;;39.80;34.60;;;;;;5070033;28;20191;-76
2021/03/31 08:49:33;;;;;;;31.45;23.20;;;39.00;33.30;;;;;;5068831;28;20183;-77
2021/03/31 08:52:02;;;;;;;31.27;21.80;;;39.20;33.80;;;;;;5070878;28;20194;-76
2021/03/31 08:54:46;;;;;;;36.28;25.52;;;39.40;33.50;;;;;;5069874;28;20285;-77
2021/03/31 08:57:13;;;;;;;38.70;24.27;;;39.40;32.50;;;;;;5067431;28;20650;-76
2021/03/31 08:59:41;;;;;;;38.83;25.25;;;39.80;33.30;;;;;;5071942;28;20230;-76
2021/03/31 09:02:08;;;;;;;34.45;23.13;;;40.20;33.00;;;;;;5069649;28;20192;-77
2021/03/31 09:04:34;;;;;;;30.48;22.38;;;40.50;32.80;;;;;;5069257;28;20183;-77
2021/03/31 09:07:03;;;;;;;33.38;21.90;;;40.50;31.70;;;;;;5065250;28;20233;-76
2021/03/31 09:09:34;;;;;;;34.95;20.70;;;40.50;32.00;;;;;;5070521;28;20184;-77
2021/03/31 09:12:02;;;;;;;32.95;21.52;;;40.80;32.50;;;;;;5069011;28;20668;-76
2021/03/31 09:14:28;;;;;;;31.48;20.17;;;41.20;31.50;;;;;;5068261;28;20268;-77
2021/03/31 09:17:03;;;;;;;28.88;18.73;;;41.40;31.20;;;;;;5070988;28;20536;-77
2021/03/31 09:19:34;;;;;;;28.10;18.27;;;41.60;31.70;;;;;;5065737;28;20664;-74
2021/03/31 09:22:18;;;;;;;28.92;17.65;;;41.40;30.30;;;;;;5068824;28;20264;-74
2021/03/31 09:24:52;;;;;;;30.40;18.38;;;40.80;30.90;;;;;;5068042;28;20278;-75
2021/03/31 09:27:24;;;;;;;30.33;19.08;;;38.90;32.00;;;;;;5069398;28;20175;-74
2021/03/31 09:29:53;;;;;;;30.38;19.02;;;36.60;33.30;;;;;;5071804;28;20588;-74
2021/03/31 09:32:30;;;;;;;34.92;19.40;;;34.60;35.50;;;;;;5066718;28;20617;-74
2021/03/31 09:34:56;;;;;;;29.67;18.45;;;33.00;36.70;;;;;;5068371;28;20191;-74
2021/03/31 09:37:21;;;;;;;27.77;16.42;;;31.80;39.00;;;;;;5066589;28;20202;-74
2021/03/31 09:39:56;;;;;;;29.60;17.42;;;30.80;39.70;;;;;;5070216;28;20186;-75
2021/03/31 09:42:32;;;;;;;30.25;16.73;;;29.80;40.90;;;;;;5066801;28;20684;-74
2021/03/31 09:44:59;;;;;;;32.70;15.75;;;29.00;42.70;;;;;;5067376;28;20198;-74
2021/03/31 09:47:30;;;;;;;30.58;16.40;;;28.40;44.50;;;;;;5067232;28;20175;-74
2021/03/31 09:49:58;;;;;;;35.03;17.00;;;27.90;45.30;;;;;;5066174;28;20183;-74
2021/03/31 09:52:31;;;;;;;31.60;16.33;;;27.50;46.40;;;;;;5067838;28;20202;-75
2021/03/31 09:55:04;;;;;;;31.23;17.02;;;27.60;47.80;;;;;;5066123;28;20685;-75
2021/03/31 09:57:31;;;;;;;33.67;16.23;;;28.90;45.60;;;;;;5070311;28;20187;-75
2021/03/31 10:00:06;;;;;;;29.27;16.80;;;31.40;43.20;;;;;;5074062;28;20183;-75
2021/03/31 10:02:39;;;;;;;34.40;16.75;;;33.00;40.60;;;;;;5070982;28;20211;-74
2021/03/31 10:05:09;;;;;;;30.40;16.60;;;34.40;39.10;;;;;;5068140;28;20190;-75
2021/03/31 10:07:35;;;;;;;33.33;17.42;;;35.60;38.90;;;;;;5068585;28;20270;-75
2021/03/31 10:10:01;;;;;;;30.25;16.77;;;36.80;36.80;;;;;;5074484;28;20263;-74
2021/03/31 10:12:29;;;;;;;30.73;17.20;;;37.50;36.00;;;;;;5075444;28;20210;-74
2021/03/31 10:14:57;;;;;;;33.15;18.00;;;37.90;35.10;;;;;;5070452;28;20200;-76
2021/03/31 10:17:28;;;;;;;26.90;16.10;;;39.00;34.60;;;;;;5074394;28;20163;-75
2021/03/31 10:20:05;;;;;;;33.15;17.83;;;39.20;34.20;;;;;;5071248;28;20262;-75
2021/03/31 10:22:30;;;;;;;29.95;17.33;;;39.50;33.10;;;;;;5072087;28;20227;-75
2021/03/31 10:24:56;;;;;;;33.20;16.95;;;39.70;33.30;;;;;;5072535;28;20541;-75
2021/03/31 10:27:43;;;;;;;29.20;16.88;;;40.10;33.30;;;;;;5074299;28;20191;-75
2021/03/31 10:30:30;;;;;;;29.35;16.70;;;40.20;33.20;;;;;;5072882;28;20184;-75
2021/03/31 10:32:58;;;;;;;32.58;17.05;;;40.90;32.90;;;;;;5088486;28;20689;-77
2021/03/31 10:35:46;;;;;;;32.10;17.40;;;41.10;31.90;;;;;;5077587;28;20227;-77
2021/03/31 10:38:23;;;;;;;36.63;18.23;;;41.10;31.80;;;;;;5072861;28;20241;-77
2021/03/31 10:52:01;;;;;;;27.67;15.80;;;40.00;31.20;;;;;;5074027;28;20186;-78
2021/03/31 10:54:27;;;;;;;28.52;16.77;;;38.90;32.40;;;;;;5073481;28;20199;-78
2021/03/31 10:57:05;;;;;;;30.15;16.05;;;38.00;34.00;;;;;;5074659;28;20198;-78
2021/03/31 10:59:31;;;;;;;27.52;15.73;;;37.80;34.50;;;;;;5068668;28;20204;-79
2021/03/31 11:01:57;;;;;;;26.02;15.57;;;37.60;35.10;;;;;;5064793;28;20207;-79
2021/03/31 11:04:22;;;;;;;26.80;15.52;;;37.50;35.00;;;;;;5073081;28;20257;-78
2021/03/31 11:06:48;;;;;;;29.27;15.18;;;37.50;35.10;;;;;;5072959;28;20608;-78
2021/03/31 11:09:14;;;;;;;25.10;15.52;;;37.50;34.80;;;;;;5072141;28;20689;-78
2021/03/31 11:11:39;;;;;;;33.75;17.15;;;36.90;36.60;;;;;;5069047;28;20195;-78
2021/03/31 11:14:05;;;;;;;30.52;17.60;;;35.80;36.40;;;;;;5075026;28;20215;-79
2021/03/31 11:16:31;;;;;;;29.67;17.52;;;35.60;35.50;;;;;;5073710;28;20202;-78
2021/03/31 11:26:54;;;;;;;35.80;17.95;;;34.20;36.20;;;;;;5072323;28;20210;-78
2021/03/31 11:29:20;;;;;;;33.47;17.35;;;33.90;37.10;;;;;;5069204;28;20211;-78
2021/03/31 11:31:46;;;;;;;27.67;15.55;;;33.90;38.90;;;;;;5075174;28;20642;-78
2021/03/31 11:34:11;;;;;;;31.50;16.40;;;33.70;37.80;;;;;;5067748;28;20213;-78
2021/03/31 11:36:37;;;;;;;26.77;15.32;;;33.80;39.20;;;;;;5069603;28;20732;-78
2021/03/31 11:39:04;;;;;;;32.90;17.17;;;33.70;38.10;;;;;;5070569;28;20203;-77
2021/03/31 11:41:29;;;;;;;34.22;16.70;;;33.10;37.80;;;;;;5069292;28;20272;-78
2021/03/31 11:43:55;;;;;;;31.92;15.80;;;32.90;39.30;;;;;;5072102;28;20217;-78
2021/03/31 11:46:21;;;;;;;35.42;16.15;;;32.70;39.90;;;;;;5071553;28;20595;-78
2021/03/31 11:48:46;;;;;;;34.10;16.70;;;31.90;39.50;;;;;;5069369;28;20179;-76
2021/03/31 11:51:12;;;;;;;36.22;17.63;;;32.00;40.60;;;;;;5069610;28;20225;-77
2021/03/31 11:53:38;;;;;;;31.13;16.70;;;32.10;40.40;;;;;;5069106;28;20279;-77
2021/03/31 11:56:04;;;;;;;35.95;17.70;;;33.00;40.10;;;;;;5070126;28;20296;-77
2021/03/31 11:58:29;;;;;;;32.65;17.05;;;33.80;39.20;;;;;;5068314;28;20646;-77
2021/03/31 12:00:55;;;;;;;31.38;16.00;;;34.00;37.80;;;;;;5070993;28;20187;-76
2021/03/31 12:03:22;;;;;;;33.33;16.75;;;34.10;39.10;;;;;;5071282;28;20704;-77
2021/03/31 12:05:48;;;;;;;30.80;16.25;;;34.30;40.20;;;;;;5066244;28;20187;-77
2021/03/31 12:08:13;;;;;;;33.45;17.08;;;33.90;40.10;;;;;;5072896;28;20560;-76
2021/03/31 12:10:39;;;;;;;31.77;17.40;;;34.80;39.10;;;;;;5071313;28;20687;-77
2021/03/31 12:13:05;;;;;;;28.13;15.73;;;35.60;39.10;;;;;;5071172;28;20190;-77
2021/03/31 12:15:31;;;;;;;30.55;16.23;;;35.70;35.00;;;;;;5072704;28;20249;-77
2021/03/31 12:17:56;;;;;;;25.75;14.02;;;35.50;35.60;;;;;;5067517;28;20187;-77
2021/03/31 12:20:22;;;;;;;32.50;16.05;;;36.00;34.40;;;;;;5071082;28;20559;-77
2021/03/31 12:22:48;;;;;;;23.48;12.88;;;36.00;34.50;;;;;;5069021;28;20242;-77
2021/03/31 12:25:14;;;;;;;26.48;13.63;;;36.00;34.20;;;;;;5071021;28;20180;-77
2021/03/31 12:27:42;;;;;;;28.83;14.82;;;36.50;33.10;;;;;;5071982;28;20213;-77
2021/03/31 12:30:13;;;;;;;28.27;14.77;;;36.40;33.60;;;;;;5069336;28;20271;-77
2021/03/31 12:32:39;;;;;;;25.23;13.60;;;36.90;32.60;;;;;;5071575;28;20551;-78
2021/03/31 12:35:06;;;;;;;27.45;14.07;;;36.70;33.20;;;;;;5069635;28;20690;-78
2021/03/31 12:37:32;;;;;;;29.35;15.75;;;37.10;32.90;;;;;;5071595;28;20195;-78
2021/03/31 12:39:57;;;;;;;28.98;16.30;;;37.10;33.60;;;;;;5073457;28;20533;-79
2021/03/31 12:42:24;;;;;;;31.45;17.55;;;37.10;35.00;;;;;;5070308;28;20180;-79
2021/03/31 12:44:50;;;;;;;33.80;17.20;;;36.70;36.80;;;;;;5071384;28;20187;-78
2021/03/31 12:47:19;;;;;;;27.42;15.35;;;36.40;35.40;;;;;;5070468;28;20187;-79
2021/03/31 12:49:47;;;;;;;30.70;15.77;;;36.30;36.10;;;;;;5073253;28;20325;-78
2021/03/31 12:52:15;;;;;;;32.78;16.55;;;35.70;36.30;;;;;;5069665;28;20183;-78
2021/03/31 12:54:53;;;;;;;27.25;14.90;;;34.40;37.20;;;;;;5070014;28;20200;-78
2021/03/31 12:57:20;;;;;;;30.88;14.35;;;33.40;37.60;;;;;;5071660;28;20199;-77
2021/03/31 12:59:46;;;;;;;26.73;13.77;;;32.70;37.30;;;;;;5067943;28;20188;-77
2021/03/31 13:02:11;;;;;;;31.02;14.13;;;32.00;37.60;;;;;;5070337;28;20176;-77
2021/03/31 13:04:37;;;;;;;25.40;13.43;;;31.40;38.20;;;;;;5067401;28;20203;-77